sensor_id;sensor_type;location;lat;lon;timestamp;temperature;humidity
62573;DHT22;48626;51.678;5.806;2022-08-24T00:01:14;21.90;80.40
62573;DHT22;48626;51.678;5.806;2022-08-24T00:03:41;21.80;80.50
62573;DHT22;48626;51.678;5.806;2022-08-24T00:06:10;21.80;80.60
62573;DHT22;48626;51.678;5.806;2022-08-24T00:08:37;21.80;80.70
62573;DHT22;48626;51.678;5.806;2022-08-24T00:11:03;21.80;80.70
62573;DHT22;48626;51.678;5.806;2022-08-24T00:13:29;21.80;80.80
62573;DHT22;48626;51.678;5.806;2022-08-24T00:15:55;21.80;81.00
62573;DHT22;48626;51.678;5.806;2022-08-24T00:18:21;21.70;81.10
62573;DHT22;48626;51.678;5.806;2022-08-24T00:20:47;21.70;81.10
62573;DHT22;48626;51.678;5.806;2022-08-24T00:23:13;21.70;81.20
62573;DHT22;48626;51.678;5.806;2022-08-24T00:25:39;21.70;81.20
62573;DHT22;48626;51.678;5.806;2022-08-24T00:28:05;21.70;81.30
62573;DHT22;48626;51.678;5.806;2022-08-24T00:30:32;21.60;81.30
62573;DHT22;48626;51.678;5.806;2022-08-24T00:32:58;21.60;81.50
62573;DHT22;48626;51.678;5.806;2022-08-24T00:35:23;21.50;81.40
62573;DHT22;48626;51.678;5.806;2022-08-24T00:37:51;21.50;81.60
62573;DHT22;48626;51.678;5.806;2022-08-24T00:42:47;21.40;82.10
62573;DHT22;48626;51.678;5.806;2022-08-24T00:45:16;21.40;82.20
62573;DHT22;48626;51.678;5.806;2022-08-24T00:47:55;21.40;82.40
62573;DHT22;48626;51.678;5.806;2022-08-24T00:53:08;21.30;82.70
62573;DHT22;48626;51.678;5.806;2022-08-24T00:55:38;21.30;82.80
62573;DHT22;48626;51.678;5.806;2022-08-24T00:58:14;21.30;83.00
62573;DHT22;48626;51.678;5.806;2022-08-24T01:00:44;21.20;83.10
62573;DHT22;48626;51.678;5.806;2022-08-24T01:03:11;21.20;83.00
62573;DHT22;48626;51.678;5.806;2022-08-24T01:05:39;21.10;82.90
62573;DHT22;48626;51.678;5.806;2022-08-24T01:08:07;21.10;83.10
62573;DHT22;48626;51.678;5.806;2022-08-24T01:10:39;21.10;83.50
62573;DHT22;48626;51.678;5.806;2022-08-24T01:13:07;21.00;83.70
62573;DHT22;48626;51.678;5.806;2022-08-24T01:15:36;21.00;83.80
62573;DHT22;48626;51.678;5.806;2022-08-24T01:18:03;20.90;83.90
62573;DHT22;48626;51.678;5.806;2022-08-24T01:20:56;20.90;84.00
62573;DHT22;48626;51.678;5.806;2022-08-24T01:26:12;20.90;84.40
62573;DHT22;48626;51.678;5.806;2022-08-24T01:28:39;20.90;84.40
62573;DHT22;48626;51.678;5.806;2022-08-24T01:31:05;20.80;84.40
62573;DHT22;48626;51.678;5.806;2022-08-24T01:33:31;20.80;84.60
62573;DHT22;48626;51.678;5.806;2022-08-24T01:36:15;20.80;84.80
62573;DHT22;48626;51.678;5.806;2022-08-24T01:38:44;20.80;85.00
62573;DHT22;48626;51.678;5.806;2022-08-24T01:41:09;20.80;85.10
62573;DHT22;48626;51.678;5.806;2022-08-24T01:43:35;20.80;85.10
62573;DHT22;48626;51.678;5.806;2022-08-24T01:46:01;20.80;85.20
62573;DHT22;48626;51.678;5.806;2022-08-24T01:48:27;20.70;85.00
62573;DHT22;48626;51.678;5.806;2022-08-24T01:50:52;20.70;85.20
62573;DHT22;48626;51.678;5.806;2022-08-24T01:53:18;20.70;85.50
62573;DHT22;48626;51.678;5.806;2022-08-24T01:55:45;20.60;85.40
62573;DHT22;48626;51.678;5.806;2022-08-24T01:58:11;20.60;85.60
62573;DHT22;48626;51.678;5.806;2022-08-24T02:00:37;20.60;85.60
62573;DHT22;48626;51.678;5.806;2022-08-24T02:03:03;20.60;85.50
62573;DHT22;48626;51.678;5.806;2022-08-24T02:05:29;20.60;86.50
62573;DHT22;48626;51.678;5.806;2022-08-24T02:07:55;20.50;85.60
62573;DHT22;48626;51.678;5.806;2022-08-24T02:10:23;20.50;85.60
62573;DHT22;48626;51.678;5.806;2022-08-24T02:12:49;20.50;85.70
62573;DHT22;48626;51.678;5.806;2022-08-24T02:15:25;20.50;85.80
62573;DHT22;48626;51.678;5.806;2022-08-24T02:17:52;20.40;85.80
62573;DHT22;48626;51.678;5.806;2022-08-24T02:20:18;20.40;85.80
62573;DHT22;48626;51.678;5.806;2022-08-24T02:22:46;20.30;86.00
62573;DHT22;48626;51.678;5.806;2022-08-24T02:25:12;20.30;86.10
62573;DHT22;48626;51.678;5.806;2022-08-24T02:27:38;20.30;86.10
62573;DHT22;48626;51.678;5.806;2022-08-24T02:30:04;20.30;86.20
62573;DHT22;48626;51.678;5.806;2022-08-24T02:32:30;20.30;86.20
62573;DHT22;48626;51.678;5.806;2022-08-24T02:34:55;20.20;86.40
62573;DHT22;48626;51.678;5.806;2022-08-24T02:37:21;20.20;86.60
62573;DHT22;48626;51.678;5.806;2022-08-24T02:39:47;20.20;86.60
62573;DHT22;48626;51.678;5.806;2022-08-24T02:42:12;20.20;86.60
62573;DHT22;48626;51.678;5.806;2022-08-24T02:44:39;20.20;86.70
62573;DHT22;48626;51.678;5.806;2022-08-24T02:47:05;20.10;86.60
62573;DHT22;48626;51.678;5.806;2022-08-24T02:49:31;20.10;86.40
62573;DHT22;48626;51.678;5.806;2022-08-24T02:51:57;20.00;86.40
62573;DHT22;48626;51.678;5.806;2022-08-24T02:54:23;20.00;86.60
62573;DHT22;48626;51.678;5.806;2022-08-24T02:56:49;20.00;86.80
62573;DHT22;48626;51.678;5.806;2022-08-24T02:59:15;20.00;86.80
62573;DHT22;48626;51.678;5.806;2022-08-24T03:01:42;19.90;86.80
62573;DHT22;48626;51.678;5.806;2022-08-24T03:04:08;19.90;86.90
62573;DHT22;48626;51.678;5.806;2022-08-24T03:06:33;19.90;87.10
62573;DHT22;48626;51.678;5.806;2022-08-24T03:08:59;19.90;87.30
62573;DHT22;48626;51.678;5.806;2022-08-24T03:11:25;19.80;87.40
62573;DHT22;48626;51.678;5.806;2022-08-24T03:13:50;19.80;87.50
62573;DHT22;48626;51.678;5.806;2022-08-24T03:16:16;19.80;87.60
62573;DHT22;48626;51.678;5.806;2022-08-24T03:18:42;19.80;87.50
62573;DHT22;48626;51.678;5.806;2022-08-24T03:21:08;19.80;87.60
62573;DHT22;48626;51.678;5.806;2022-08-24T03:23:35;19.70;87.60
62573;DHT22;48626;51.678;5.806;2022-08-24T03:26:00;19.70;87.70
62573;DHT22;48626;51.678;5.806;2022-08-24T03:28:26;19.70;87.90
62573;DHT22;48626;51.678;5.806;2022-08-24T03:30:52;19.70;87.90
62573;DHT22;48626;51.678;5.806;2022-08-24T03:33:18;19.60;87.80
62573;DHT22;48626;51.678;5.806;2022-08-24T03:35:44;19.60;87.80
62573;DHT22;48626;51.678;5.806;2022-08-24T03:38:10;19.60;88.00
62573;DHT22;48626;51.678;5.806;2022-08-24T03:40:37;19.50;87.90
62573;DHT22;48626;51.678;5.806;2022-08-24T03:43:02;19.50;88.00
62573;DHT22;48626;51.678;5.806;2022-08-24T03:45:28;19.50;88.20
62573;DHT22;48626;51.678;5.806;2022-08-24T03:47:55;19.50;88.30
62573;DHT22;48626;51.678;5.806;2022-08-24T03:50:21;19.50;89.20
62573;DHT22;48626;51.678;5.806;2022-08-24T03:52:47;19.40;88.30
62573;DHT22;48626;51.678;5.806;2022-08-24T03:55:13;19.40;88.30
62573;DHT22;48626;51.678;5.806;2022-08-24T03:57:39;19.40;88.40
62573;DHT22;48626;51.678;5.806;2022-08-24T04:00:07;19.40;88.50
62573;DHT22;48626;51.678;5.806;2022-08-24T04:02:34;19.30;88.60
62573;DHT22;48626;51.678;5.806;2022-08-24T04:05:00;19.30;88.50
62573;DHT22;48626;51.678;5.806;2022-08-24T04:07:25;19.30;88.50
62573;DHT22;48626;51.678;5.806;2022-08-24T04:09:52;19.20;88.60
62573;DHT22;48626;51.678;5.806;2022-08-24T04:12:17;19.20;88.70
62573;DHT22;48626;51.678;5.806;2022-08-24T04:14:43;19.20;88.80
62573;DHT22;48626;51.678;5.806;2022-08-24T04:17:09;19.20;88.90
62573;DHT22;48626;51.678;5.806;2022-08-24T04:19:36;19.20;89.90
62573;DHT22;48626;51.678;5.806;2022-08-24T04:22:02;19.20;89.00
62573;DHT22;48626;51.678;5.806;2022-08-24T04:24:28;19.10;89.10
62573;DHT22;48626;51.678;5.806;2022-08-24T04:26:54;19.10;89.20
62573;DHT22;48626;51.678;5.806;2022-08-24T04:29:20;19.10;89.40
62573;DHT22;48626;51.678;5.806;2022-08-24T04:31:46;19.10;89.50
62573;DHT22;48626;51.678;5.806;2022-08-24T04:34:13;19.10;89.60
62573;DHT22;48626;51.678;5.806;2022-08-24T04:36:40;19.10;89.60
62573;DHT22;48626;51.678;5.806;2022-08-24T04:39:06;19.00;89.70
62573;DHT22;48626;51.678;5.806;2022-08-24T04:41:32;19.00;89.70
62573;DHT22;48626;51.678;5.806;2022-08-24T04:43:59;19.10;89.70
62573;DHT22;48626;51.678;5.806;2022-08-24T04:46:25;19.00;89.70
62573;DHT22;48626;51.678;5.806;2022-08-24T04:48:50;19.00;89.60
62573;DHT22;48626;51.678;5.806;2022-08-24T04:51:18;19.00;89.70
62573;DHT22;48626;51.678;5.806;2022-08-24T04:53:45;19.00;89.70
62573;DHT22;48626;51.678;5.806;2022-08-24T04:56:14;19.00;89.70
62573;DHT22;48626;51.678;5.806;2022-08-24T04:58:40;19.00;89.80
62573;DHT22;48626;51.678;5.806;2022-08-24T05:01:12;19.00;89.80
62573;DHT22;48626;51.678;5.806;2022-08-24T05:03:38;19.00;90.00
62573;DHT22;48626;51.678;5.806;2022-08-24T05:06:04;19.00;90.10
62573;DHT22;48626;51.678;5.806;2022-08-24T05:08:30;19.00;89.90
62573;DHT22;48626;51.678;5.806;2022-08-24T05:10:56;19.00;89.90
62573;DHT22;48626;51.678;5.806;2022-08-24T05:13:22;19.00;90.00
62573;DHT22;48626;51.678;5.806;2022-08-24T05:15:48;19.00;90.00
62573;DHT22;48626;51.678;5.806;2022-08-24T05:18:15;19.00;90.00
62573;DHT22;48626;51.678;5.806;2022-08-24T05:20:45;19.10;90.00
62573;DHT22;48626;51.678;5.806;2022-08-24T05:23:12;19.10;90.00
62573;DHT22;48626;51.678;5.806;2022-08-24T05:25:39;19.10;90.10
62573;DHT22;48626;51.678;5.806;2022-08-24T05:28:05;19.10;90.10
62573;DHT22;48626;51.678;5.806;2022-08-24T05:30:31;19.20;90.10
62573;DHT22;48626;51.678;5.806;2022-08-24T05:32:57;19.20;90.10
62573;DHT22;48626;51.678;5.806;2022-08-24T05:35:22;19.30;90.10
62573;DHT22;48626;51.678;5.806;2022-08-24T05:37:48;19.30;90.20
62573;DHT22;48626;51.678;5.806;2022-08-24T05:40:16;19.40;90.20
62573;DHT22;48626;51.678;5.806;2022-08-24T05:42:42;19.50;90.20
62573;DHT22;48626;51.678;5.806;2022-08-24T05:45:08;19.50;90.20
62573;DHT22;48626;51.678;5.806;2022-08-24T05:47:35;19.60;90.20
62573;DHT22;48626;51.678;5.806;2022-08-24T05:50:02;19.60;90.20
62573;DHT22;48626;51.678;5.806;2022-08-24T05:52:28;19.70;90.20
62573;DHT22;48626;51.678;5.806;2022-08-24T05:54:56;19.80;90.40
62573;DHT22;48626;51.678;5.806;2022-08-24T05:57:23;19.90;90.20
62573;DHT22;48626;51.678;5.806;2022-08-24T05:59:49;19.90;90.20
62573;DHT22;48626;51.678;5.806;2022-08-24T06:02:16;20.00;90.20
62573;DHT22;48626;51.678;5.806;2022-08-24T06:04:42;20.10;90.20
62573;DHT22;48626;51.678;5.806;2022-08-24T06:07:07;20.20;90.10
62573;DHT22;48626;51.678;5.806;2022-08-24T06:09:34;20.30;90.30
62573;DHT22;48626;51.678;5.806;2022-08-24T06:12:01;20.40;90.40
62573;DHT22;48626;51.678;5.806;2022-08-24T06:14:26;20.50;90.50
62573;DHT22;48626;51.678;5.806;2022-08-24T06:16:52;20.60;90.60
62573;DHT22;48626;51.678;5.806;2022-08-24T06:19:18;20.80;90.40
62573;DHT22;48626;51.678;5.806;2022-08-24T06:21:46;20.80;90.20
62573;DHT22;48626;51.678;5.806;2022-08-24T06:24:12;20.90;90.00
62573;DHT22;48626;51.678;5.806;2022-08-24T06:26:41;21.00;90.00
62573;DHT22;48626;51.678;5.806;2022-08-24T06:29:25;21.00;90.10
62573;DHT22;48626;51.678;5.806;2022-08-24T06:31:51;21.10;90.20
62573;DHT22;48626;51.678;5.806;2022-08-24T06:34:17;21.20;90.30
62573;DHT22;48626;51.678;5.806;2022-08-24T06:36:44;21.20;90.40
62573;DHT22;48626;51.678;5.806;2022-08-24T06:39:09;21.30;90.40
62573;DHT22;48626;51.678;5.806;2022-08-24T06:41:37;21.30;90.50
62573;DHT22;48626;51.678;5.806;2022-08-24T06:44:04;21.40;90.50
62573;DHT22;48626;51.678;5.806;2022-08-24T06:46:30;21.40;90.60
62573;DHT22;48626;51.678;5.806;2022-08-24T06:48:55;21.60;90.60
62573;DHT22;48626;51.678;5.806;2022-08-24T06:51:22;21.60;90.70
62573;DHT22;48626;51.678;5.806;2022-08-24T06:53:48;21.70;90.60
62573;DHT22;48626;51.678;5.806;2022-08-24T06:56:16;21.80;90.70
62573;DHT22;48626;51.678;5.806;2022-08-24T06:58:43;21.90;90.70
62573;DHT22;48626;51.678;5.806;2022-08-24T07:01:14;22.00;90.80
62573;DHT22;48626;51.678;5.806;2022-08-24T07:03:40;22.00;90.80
62573;DHT22;48626;51.678;5.806;2022-08-24T07:06:07;22.10;91.00
62573;DHT22;48626;51.678;5.806;2022-08-24T07:08:33;22.20;91.10
62573;DHT22;48626;51.678;5.806;2022-08-24T07:10:59;22.30;90.90
62573;DHT22;48626;51.678;5.806;2022-08-24T07:13:24;22.40;90.60
62573;DHT22;48626;51.678;5.806;2022-08-24T07:15:51;22.50;90.60
62573;DHT22;48626;51.678;5.806;2022-08-24T07:18:18;22.60;90.60
62573;DHT22;48626;51.678;5.806;2022-08-24T07:20:44;22.70;90.50
62573;DHT22;48626;51.678;5.806;2022-08-24T07:23:11;22.70;90.30
62573;DHT22;48626;51.678;5.806;2022-08-24T07:25:39;22.80;90.00
62573;DHT22;48626;51.678;5.806;2022-08-24T07:28:05;22.90;89.90
62573;DHT22;48626;51.678;5.806;2022-08-24T07:30:31;23.00;89.70
62573;DHT22;48626;51.678;5.806;2022-08-24T07:32:57;23.10;89.50
62573;DHT22;48626;51.678;5.806;2022-08-24T07:35:25;23.20;89.00
62573;DHT22;48626;51.678;5.806;2022-08-24T07:37:51;23.40;88.30
62573;DHT22;48626;51.678;5.806;2022-08-24T07:40:17;23.50;87.90
62573;DHT22;48626;51.678;5.806;2022-08-24T07:42:46;23.60;87.90
62573;DHT22;48626;51.678;5.806;2022-08-24T07:45:12;23.80;87.70
62573;DHT22;48626;51.678;5.806;2022-08-24T07:47:38;23.90;86.30
62573;DHT22;48626;51.678;5.806;2022-08-24T07:50:04;24.10;85.00
62573;DHT22;48626;51.678;5.806;2022-08-24T07:52:30;24.20;84.70
62573;DHT22;48626;51.678;5.806;2022-08-24T07:54:56;24.30;83.70
62573;DHT22;48626;51.678;5.806;2022-08-24T07:57:22;24.40;82.90
62573;DHT22;48626;51.678;5.806;2022-08-24T07:59:48;24.60;82.90
62573;DHT22;48626;51.678;5.806;2022-08-24T08:02:14;24.70;82.10
62573;DHT22;48626;51.678;5.806;2022-08-24T08:04:40;24.90;82.30
62573;DHT22;48626;51.678;5.806;2022-08-24T08:07:06;25.00;80.70
62573;DHT22;48626;51.678;5.806;2022-08-24T08:09:35;25.10;80.20
62573;DHT22;48626;51.678;5.806;2022-08-24T08:12:01;25.10;79.60
62573;DHT22;48626;51.678;5.806;2022-08-24T08:14:26;25.20;78.10
62573;DHT22;48626;51.678;5.806;2022-08-24T08:16:52;25.40;78.90
62573;DHT22;48626;51.678;5.806;2022-08-24T08:19:18;25.60;77.40
62573;DHT22;48626;51.678;5.806;2022-08-24T08:21:45;25.70;76.70
62573;DHT22;48626;51.678;5.806;2022-08-24T08:24:39;25.80;76.80
62573;DHT22;48626;51.678;5.806;2022-08-24T08:27:07;25.90;76.90
62573;DHT22;48626;51.678;5.806;2022-08-24T08:29:33;26.00;76.00
62573;DHT22;48626;51.678;5.806;2022-08-24T08:31:59;26.10;75.30
62573;DHT22;48626;51.678;5.806;2022-08-24T08:34:26;26.10;74.60
62573;DHT22;48626;51.678;5.806;2022-08-24T08:36:52;26.30;74.20
62573;DHT22;48626;51.678;5.806;2022-08-24T08:39:20;26.40;74.90
62573;DHT22;48626;51.678;5.806;2022-08-24T08:56:05;27.00;72.60
62573;DHT22;48626;51.678;5.806;2022-08-24T08:59:04;27.20;71.30
62573;DHT22;48626;51.678;5.806;2022-08-24T09:06:52;27.40;68.70
62573;DHT22;48626;51.678;5.806;2022-08-24T09:14:46;27.40;67.00
62573;DHT22;48626;51.678;5.806;2022-08-24T09:17:49;27.60;69.90
62573;DHT22;48626;51.678;5.806;2022-08-24T09:28:43;27.90;68.10
62573;DHT22;48626;51.678;5.806;2022-08-24T09:31:26;28.00;65.50
62573;DHT22;48626;51.678;5.806;2022-08-24T09:34:06;28.10;64.50
62573;DHT22;48626;51.678;5.806;2022-08-24T09:39:34;28.20;62.40
62573;DHT22;48626;51.678;5.806;2022-08-24T09:42:11;28.30;62.00
62573;DHT22;48626;51.678;5.806;2022-08-24T09:47:40;28.40;62.00
62573;DHT22;48626;51.678;5.806;2022-08-24T09:58:36;28.90;66.00
62573;DHT22;48626;51.678;5.806;2022-08-24T10:01:27;29.10;62.40
62573;DHT22;48626;51.678;5.806;2022-08-24T10:07:30;29.40;62.40
62573;DHT22;48626;51.678;5.806;2022-08-24T10:13:13;29.70;64.20
62573;DHT22;48626;51.678;5.806;2022-08-24T10:30:36;30.30;54.40
62573;DHT22;48626;51.678;5.806;2022-08-24T10:33:23;30.10;56.20
62573;DHT22;48626;51.678;5.806;2022-08-24T10:47:23;32.00;61.20
62573;DHT22;48626;51.678;5.806;2022-08-24T10:50:01;32.20;55.80
62573;DHT22;48626;51.678;5.806;2022-08-24T10:55:19;32.60;59.10
62573;DHT22;48626;51.678;5.806;2022-08-24T10:58:09;32.70;59.10
62573;DHT22;48626;51.678;5.806;2022-08-24T11:00:36;32.40;57.00
62573;DHT22;48626;51.678;5.806;2022-08-24T11:03:12;31.80;53.30
62573;DHT22;48626;51.678;5.806;2022-08-24T11:05:47;31.60;53.40
62573;DHT22;48626;51.678;5.806;2022-08-24T11:08:25;31.30;55.20
62573;DHT22;48626;51.678;5.806;2022-08-24T11:11:08;31.40;57.80
62573;DHT22;48626;51.678;5.806;2022-08-24T11:13:37;31.80;61.30
62573;DHT22;48626;51.678;5.806;2022-08-24T11:16:05;32.20;59.00
62573;DHT22;48626;51.678;5.806;2022-08-24T11:18:58;32.50;55.40
62573;DHT22;48626;51.678;5.806;2022-08-24T11:21:49;32.70;55.60
62573;DHT22;48626;51.678;5.806;2022-08-24T11:26:57;32.40;51.30
62573;DHT22;48626;51.678;5.806;2022-08-24T11:29:29;32.40;54.80
62573;DHT22;48626;51.678;5.806;2022-08-24T11:32:44;32.00;51.00
62573;DHT22;48626;51.678;5.806;2022-08-24T11:37:39;31.20;50.50
62573;DHT22;48626;51.678;5.806;2022-08-24T11:40:06;31.20;52.30
62573;DHT22;48626;51.678;5.806;2022-08-24T11:45:15;31.00;52.00
62573;DHT22;48626;51.678;5.806;2022-08-24T11:47:57;31.00;53.20
62573;DHT22;48626;51.678;5.806;2022-08-24T11:50:38;31.00;53.70
62573;DHT22;48626;51.678;5.806;2022-08-24T12:01:52;32.60;53.80
62573;DHT22;48626;51.678;5.806;2022-08-24T12:15:15;36.70;45.00
62573;DHT22;48626;51.678;5.806;2022-08-24T12:17:52;36.90;46.40
62573;DHT22;48626;51.678;5.806;2022-08-24T12:20:31;37.20;42.00
62573;DHT22;48626;51.678;5.806;2022-08-24T12:23:02;37.10;38.90
62573;DHT22;48626;51.678;5.806;2022-08-24T12:25:30;37.70;38.80
62573;DHT22;48626;51.678;5.806;2022-08-24T12:28:27;37.70;37.40
62573;DHT22;48626;51.678;5.806;2022-08-24T12:30:58;37.80;37.40
62573;DHT22;48626;51.678;5.806;2022-08-24T12:33:30;38.50;41.00
62573;DHT22;48626;51.678;5.806;2022-08-24T12:36:03;39.10;43.40
62573;DHT22;48626;51.678;5.806;2022-08-24T12:38:37;38.00;37.80
62573;DHT22;48626;51.678;5.806;2022-08-24T12:41:14;38.10;42.10
62573;DHT22;48626;51.678;5.806;2022-08-24T12:43:50;38.20;43.60
62573;DHT22;48626;51.678;5.806;2022-08-24T12:46:23;38.40;37.00
62573;DHT22;48626;51.678;5.806;2022-08-24T12:49:02;38.30;35.30
62573;DHT22;48626;51.678;5.806;2022-08-24T12:58:08;39.60;40.60
62573;DHT22;48626;51.678;5.806;2022-08-24T13:00:47;40.20;44.20
62573;DHT22;48626;51.678;5.806;2022-08-24T13:03:33;40.70;38.20
62573;DHT22;48626;51.678;5.806;2022-08-24T13:06:04;41.00;39.00
62573;DHT22;48626;51.678;5.806;2022-08-24T13:08:37;40.90;35.00
62573;DHT22;48626;51.678;5.806;2022-08-24T13:11:10;40.80;36.00
62573;DHT22;48626;51.678;5.806;2022-08-24T13:14:04;41.00;33.80
62573;DHT22;48626;51.678;5.806;2022-08-24T13:19:42;40.90;31.70
62573;DHT22;48626;51.678;5.806;2022-08-24T13:29:53;41.10;34.20
62573;DHT22;48626;51.678;5.806;2022-08-24T13:32:43;41.00;30.30
62573;DHT22;48626;51.678;5.806;2022-08-24T13:35:31;40.40;29.10
62573;DHT22;48626;51.678;5.806;2022-08-24T13:38:22;39.70;30.30
62573;DHT22;48626;51.678;5.806;2022-08-24T13:41:36;39.00;32.10
62573;DHT22;48626;51.678;5.806;2022-08-24T13:44:41;37.90;34.30
62573;DHT22;48626;51.678;5.806;2022-08-24T13:50:29;36.60;34.60
62573;DHT22;48626;51.678;5.806;2022-08-24T13:53:04;35.90;33.90
62573;DHT22;48626;51.678;5.806;2022-08-24T13:55:44;35.40;38.10
62573;DHT22;48626;51.678;5.806;2022-08-24T14:04:27;34.70;42.70
62573;DHT22;48626;51.678;5.806;2022-08-24T14:15:08;34.60;40.50
62573;DHT22;48626;51.678;5.806;2022-08-24T14:20:41;34.70;38.60
62573;DHT22;48626;51.678;5.806;2022-08-24T14:25:40;34.90;39.00
62573;DHT22;48626;51.678;5.806;2022-08-24T14:31:12;34.10;43.00
62573;DHT22;48626;51.678;5.806;2022-08-24T14:36:47;34.60;41.00
62573;DHT22;48626;51.678;5.806;2022-08-24T14:45:07;37.50;38.00
62573;DHT22;48626;51.678;5.806;2022-08-24T14:50:21;36.80;37.50
62573;DHT22;48626;51.678;5.806;2022-08-24T14:55:51;36.70;37.70
62573;DHT22;48626;51.678;5.806;2022-08-24T15:04:00;35.00;36.60
62573;DHT22;48626;51.678;5.806;2022-08-24T15:09:04;36.00;44.00
62573;DHT22;48626;51.678;5.806;2022-08-24T15:11:30;35.60;37.80
62573;DHT22;48626;51.678;5.806;2022-08-24T15:14:03;35.50;39.60
62573;DHT22;48626;51.678;5.806;2022-08-24T15:24:22;35.10;42.40
62573;DHT22;48626;51.678;5.806;2022-08-24T15:26:59;35.00;39.10
62573;DHT22;48626;51.678;5.806;2022-08-24T15:29:30;34.60;39.50
62573;DHT22;48626;51.678;5.806;2022-08-24T15:32:07;34.10;40.10
62573;DHT22;48626;51.678;5.806;2022-08-24T15:37:05;33.40;37.10
62573;DHT22;48626;51.678;5.806;2022-08-24T15:39:31;33.50;42.80
62573;DHT22;48626;51.678;5.806;2022-08-24T15:41:58;33.60;44.20
62573;DHT22;48626;51.678;5.806;2022-08-24T15:44:30;34.40;42.40
62573;DHT22;48626;51.678;5.806;2022-08-24T15:47:13;35.30;37.90
62573;DHT22;48626;51.678;5.806;2022-08-24T15:52:42;35.30;36.80
62573;DHT22;48626;51.678;5.806;2022-08-24T15:57:58;34.90;38.50
62573;DHT22;48626;51.678;5.806;2022-08-24T16:00:36;34.70;38.70
62573;DHT22;48626;51.678;5.806;2022-08-24T16:03:26;34.40;37.70
62573;DHT22;48626;51.678;5.806;2022-08-24T16:14:43;33.20;39.20
62573;DHT22;48626;51.678;5.806;2022-08-24T16:19:52;32.90;42.10
62573;DHT22;48626;51.678;5.806;2022-08-24T16:22:57;32.90;44.40
62573;DHT22;48626;51.678;5.806;2022-08-24T16:25:25;32.80;40.90
62573;DHT22;48626;51.678;5.806;2022-08-24T16:32:55;33.30;39.20
62573;DHT22;48626;51.678;5.806;2022-08-24T16:35:23;33.90;41.00
62573;DHT22;48626;51.678;5.806;2022-08-24T16:37:49;34.20;37.40
62573;DHT22;48626;51.678;5.806;2022-08-24T16:40:16;34.90;39.20
62573;DHT22;48626;51.678;5.806;2022-08-24T16:42:42;34.80;35.50
62573;DHT22;48626;51.678;5.806;2022-08-24T16:45:10;34.60;36.40
62573;DHT22;48626;51.678;5.806;2022-08-24T16:47:39;33.90;35.30
62573;DHT22;48626;51.678;5.806;2022-08-24T16:50:05;33.40;37.60
62573;DHT22;48626;51.678;5.806;2022-08-24T16:52:31;33.10;38.40
62573;DHT22;48626;51.678;5.806;2022-08-24T16:54:57;32.70;38.10
62573;DHT22;48626;51.678;5.806;2022-08-24T16:57:27;32.60;38.20
62573;DHT22;48626;51.678;5.806;2022-08-24T16:59:57;32.30;38.10
62573;DHT22;48626;51.678;5.806;2022-08-24T17:02:23;32.20;39.70
62573;DHT22;48626;51.678;5.806;2022-08-24T17:04:52;32.00;40.10
62573;DHT22;48626;51.678;5.806;2022-08-24T17:07:24;31.90;39.90
62573;DHT22;48626;51.678;5.806;2022-08-24T17:09:51;31.80;40.00
62573;DHT22;48626;51.678;5.806;2022-08-24T17:12:17;31.60;39.50
62573;DHT22;48626;51.678;5.806;2022-08-24T17:14:43;31.60;40.50
62573;DHT22;48626;51.678;5.806;2022-08-24T17:17:12;31.50;40.10
62573;DHT22;48626;51.678;5.806;2022-08-24T17:19:40;31.40;39.30
62573;DHT22;48626;51.678;5.806;2022-08-24T17:22:06;31.30;40.10
62573;DHT22;48626;51.678;5.806;2022-08-24T17:24:33;31.10;40.30
62573;DHT22;48626;51.678;5.806;2022-08-24T17:26:59;31.10;41.20
62573;DHT22;48626;51.678;5.806;2022-08-24T17:29:25;30.90;39.70
62573;DHT22;48626;51.678;5.806;2022-08-24T17:31:52;30.90;41.70
62573;DHT22;48626;51.678;5.806;2022-08-24T17:34:20;30.90;40.80
62573;DHT22;48626;51.678;5.806;2022-08-24T17:36:50;30.80;41.00
62573;DHT22;48626;51.678;5.806;2022-08-24T17:39:16;30.80;41.80
62573;DHT22;48626;51.678;5.806;2022-08-24T17:41:43;30.70;41.60
62573;DHT22;48626;51.678;5.806;2022-08-24T17:44:10;30.60;42.40
62573;DHT22;48626;51.678;5.806;2022-08-24T17:46:37;30.60;42.80
62573;DHT22;48626;51.678;5.806;2022-08-24T17:49:05;30.50;43.20
62573;DHT22;48626;51.678;5.806;2022-08-24T17:51:31;30.40;44.50
62573;DHT22;48626;51.678;5.806;2022-08-24T17:53:58;30.30;44.40
62573;DHT22;48626;51.678;5.806;2022-08-24T17:56:25;30.30;45.20
62573;DHT22;48626;51.678;5.806;2022-08-24T17:58:51;30.20;47.70
62573;DHT22;48626;51.678;5.806;2022-08-24T18:01:35;30.10;46.40
62573;DHT22;48626;51.678;5.806;2022-08-24T18:04:01;30.00;46.60
62573;DHT22;48626;51.678;5.806;2022-08-24T18:06:27;29.90;46.90
62573;DHT22;48626;51.678;5.806;2022-08-24T18:08:53;29.80;47.40
62573;DHT22;48626;51.678;5.806;2022-08-24T18:11:21;29.70;48.40
62573;DHT22;48626;51.678;5.806;2022-08-24T18:13:48;29.60;47.60
62573;DHT22;48626;51.678;5.806;2022-08-24T18:16:17;29.60;48.00
62573;DHT22;48626;51.678;5.806;2022-08-24T18:18:51;29.50;48.30
62573;DHT22;48626;51.678;5.806;2022-08-24T18:21:18;29.40;49.30
62573;DHT22;48626;51.678;5.806;2022-08-24T18:23:45;29.30;50.80
62573;DHT22;48626;51.678;5.806;2022-08-24T18:26:12;29.30;49.40
62573;DHT22;48626;51.678;5.806;2022-08-24T18:28:39;29.20;49.50
62573;DHT22;48626;51.678;5.806;2022-08-24T18:31:05;29.10;50.30
62573;DHT22;48626;51.678;5.806;2022-08-24T18:33:33;29.00;50.10
62573;DHT22;48626;51.678;5.806;2022-08-24T18:35:58;28.90;50.50
62573;DHT22;48626;51.678;5.806;2022-08-24T18:38:24;28.80;51.50
62573;DHT22;48626;51.678;5.806;2022-08-24T18:40:51;28.70;53.10
62573;DHT22;48626;51.678;5.806;2022-08-24T18:43:17;28.70;51.80
62573;DHT22;48626;51.678;5.806;2022-08-24T18:45:44;28.60;52.20
62573;DHT22;48626;51.678;5.806;2022-08-24T18:48:09;28.60;52.80
62573;DHT22;48626;51.678;5.806;2022-08-24T18:50:35;28.50;51.50
62573;DHT22;48626;51.678;5.806;2022-08-24T18:53:01;28.40;52.70
62573;DHT22;48626;51.678;5.806;2022-08-24T18:55:26;28.30;51.80
62573;DHT22;48626;51.678;5.806;2022-08-24T18:57:52;28.30;52.80
62573;DHT22;48626;51.678;5.806;2022-08-24T19:00:19;28.10;51.90
62573;DHT22;48626;51.678;5.806;2022-08-24T19:02:44;28.10;52.40
62573;DHT22;48626;51.678;5.806;2022-08-24T19:05:15;28.10;53.50
62573;DHT22;48626;51.678;5.806;2022-08-24T19:07:46;28.00;53.10
62573;DHT22;48626;51.678;5.806;2022-08-24T19:10:15;28.00;53.10
62573;DHT22;48626;51.678;5.806;2022-08-24T19:12:44;27.90;54.10
62573;DHT22;48626;51.678;5.806;2022-08-24T19:15:11;27.80;53.40
62573;DHT22;48626;51.678;5.806;2022-08-24T19:17:37;27.80;53.60
62573;DHT22;48626;51.678;5.806;2022-08-24T19:20:04;27.70;53.70
62573;DHT22;48626;51.678;5.806;2022-08-24T19:22:30;27.70;53.40